Startpagina
METAR-TAF:

METAR-TAF

Vliegvelden :

Piešťany, Slowakije

breedte: 48-37-30N, lengte: 017-49-43E, hoogte: 163 m

Actueel weer

Dit bericht is 30 minuten geleden gemaakt, om 00:00 UTC
Wind 15 kt uit het noorden
Temperatuur 0°C
Vochtigheid 64%
Druk 1017 hPa
Zicht 10 km of meer

METAR: LZPP 220000Z AUTO 01015KT 9999 OVC036/// M00/M06 Q1017

Tijdstip: 01:30 (00:30 UTC)

Verwachting

Dit bericht is 7 uur en het 30 minuten geleden gemaakt, om 17:00 UTC
Verwachting geldig van 21 om 18 UTC tot 22 om 03 UTC
Wind 14 kt uit het noorden
Zicht 10 km of meer
Weinig wolken op 2000 ft
Gebroken wolken op 6000 ft
Kans 40% :
Tijdelijke
van 21 om 18 UTC tot 21 om 22 UTC
Zicht: 4000 m
Weinig wolken op 1200 ft
Geheel bewolkt op 1800 ft
lichte sneeuw, nevel
Kans 30% :
Tijdelijke
van 21 om 22 UTC tot 22 om 03 UTC
Zicht: 4000 m
Geheel bewolkt op 1200 ft
nevel

TAF: LZPP 211700Z 2118/2203 36014KT 9999 FEW020 BKN060 PROB40 TEMPO 2118/2122 4000 -SN BR FEW012 OVC018 PROB30 TEMPO 2122/2203 4000 BR OVC012

Waarnemingen en weersverwachtingen van meer dan 4000 vliegvelden (METAR en TAF).

De beschikbare stations zijn de gele en rode punten op de kaart.

Ga met uw muis naar het station om de naam te zien.

Klik dan om waarnemingen en weersverwachtingen te zien.

kaart wijzigen: klik op de groene knoppen met een zwart kruis om in te zoomen, op de groene knop met een streepje om uit te zoomen of op de groene pijlen voor aangrenzende kaarten.


METAR-TAF: